sensor_id;sensor_type;location;lat;lon;timestamp;pressure;altitude;pressure_sealevel;temperature;humidity
21109;BME280;10712;52.944;9.098;2023-04-28T00:01:43;101673.59;;;13.16;47.33
21109;BME280;10712;52.944;9.098;2023-04-28T00:04:09;101677.03;;;13.18;47.56
21109;BME280;10712;52.944;9.098;2023-04-28T00:06:35;101672.72;;;13.16;47.51
21109;BME280;10712;52.944;9.098;2023-04-28T00:09:04;101670.41;;;13.08;47.33
21109;BME280;10712;52.944;9.098;2023-04-28T00:11:30;101659.72;;;13.08;47.57
21109;BME280;10712;52.944;9.098;2023-04-28T00:13:55;101660.50;;;13.10;47.44
21109;BME280;10712;52.944;9.098;2023-04-28T00:16:21;101655.94;;;13.12;47.52
21109;BME280;10712;52.944;9.098;2023-04-28T00:18:47;101659.41;;;13.14;47.50
21109;BME280;10712;52.944;9.098;2023-04-28T00:21:12;101651.31;;;13.16;47.56
21109;BME280;10712;52.944;9.098;2023-04-28T00:23:38;101646.81;;;13.16;47.70
21109;BME280;10712;52.944;9.098;2023-04-28T00:26:04;101647.69;;;13.17;47.66
21109;BME280;10712;52.944;9.098;2023-04-28T00:28:30;101633.63;;;13.13;47.70
21109;BME280;10712;52.944;9.098;2023-04-28T00:30:56;101634.53;;;13.12;47.66
21109;BME280;10712;52.944;9.098;2023-04-28T00:33:22;101635.50;;;13.11;47.64
21109;BME280;10712;52.944;9.098;2023-04-28T00:35:48;101625.72;;;13.10;47.68
21109;BME280;10712;52.944;9.098;2023-04-28T00:38:14;101631.41;;;13.04;47.85
21109;BME280;10712;52.944;9.098;2023-04-28T00:40:40;101629.53;;;13.06;48.04
21109;BME280;10712;52.944;9.098;2023-04-28T00:43:06;101617.09;;;13.05;47.74
21109;BME280;10712;52.944;9.098;2023-04-28T00:45:32;101628.75;;;13.04;48.00
21109;BME280;10712;52.944;9.098;2023-04-28T00:47:59;101619.78;;;13.05;48.01
21109;BME280;10712;52.944;9.098;2023-04-28T00:50:25;101621.59;;;13.05;48.00
21109;BME280;10712;52.944;9.098;2023-04-28T00:52:51;101611.75;;;13.05;48.09
21109;BME280;10712;52.944;9.098;2023-04-28T00:55:18;101608.13;;;13.06;48.00
21109;BME280;10712;52.944;9.098;2023-04-28T00:57:45;101611.81;;;13.03;48.18
21109;BME280;10712;52.944;9.098;2023-04-28T01:00:13;101607.50;;;13.01;48.22
21109;BME280;10712;52.944;9.098;2023-04-28T01:02:39;101613.03;;;12.98;48.27
21109;BME280;10712;52.944;9.098;2023-04-28T01:05:07;101599.81;;;12.95;48.28
21109;BME280;10712;52.944;9.098;2023-04-28T01:07:34;101602.47;;;12.95;48.36
21109;BME280;10712;52.944;9.098;2023-04-28T01:10:02;101601.53;;;12.96;48.46
21109;BME280;10712;52.944;9.098;2023-04-28T01:12:31;101597.94;;;12.97;48.41
21109;BME280;10712;52.944;9.098;2023-04-28T01:14:58;101601.38;;;12.99;48.56
21109;BME280;10712;52.944;9.098;2023-04-28T01:17:24;101597.75;;;13.00;48.39
21109;BME280;10712;52.944;9.098;2023-04-28T01:19:51;101596.91;;;12.99;48.49
21109;BME280;10712;52.944;9.098;2023-04-28T01:22:18;101590.69;;;12.99;48.53
21109;BME280;10712;52.944;9.098;2023-04-28T01:24:45;101597.75;;;13.00;48.37
21109;BME280;10712;52.944;9.098;2023-04-28T01:27:12;101588.97;;;12.98;48.44
21109;BME280;10712;52.944;9.098;2023-04-28T01:29:40;101589.81;;;12.98;48.44
21109;BME280;10712;52.944;9.098;2023-04-28T01:32:06;101590.78;;;12.97;48.58
21109;BME280;10712;52.944;9.098;2023-04-28T01:34:33;101584.47;;;12.98;48.56
21109;BME280;10712;52.944;9.098;2023-04-28T01:36:59;101583.41;;;13.01;48.46
21109;BME280;10712;52.944;9.098;2023-04-28T01:39:25;101570.84;;;13.03;48.60
21109;BME280;10712;52.944;9.098;2023-04-28T01:41:51;101568.00;;;13.06;48.67
21109;BME280;10712;52.944;9.098;2023-04-28T01:44:16;101565.34;;;13.06;48.59
21109;BME280;10712;52.944;9.098;2023-04-28T01:46:42;101563.25;;;13.11;48.68
21109;BME280;10712;52.944;9.098;2023-04-28T01:49:08;101566.75;;;13.13;48.62
21109;BME280;10712;52.944;9.098;2023-04-28T01:51:34;101559.47;;;13.15;48.75
21109;BME280;10712;52.944;9.098;2023-04-28T01:54:01;101559.47;;;13.15;48.60
21109;BME280;10712;52.944;9.098;2023-04-28T01:56:28;101559.63;;;13.12;48.73
21109;BME280;10712;52.944;9.098;2023-04-28T01:58:55;101547.19;;;13.11;48.82
21109;BME280;10712;52.944;9.098;2023-04-28T02:01:22;101541.13;;;13.08;48.87
21109;BME280;10712;52.944;9.098;2023-04-28T02:03:49;101539.34;;;13.08;48.66
21109;BME280;10712;52.944;9.098;2023-04-28T02:06:15;101535.97;;;13.05;48.85
21109;BME280;10712;52.944;9.098;2023-04-28T02:08:40;101532.53;;;13.02;48.86
21109;BME280;10712;52.944;9.098;2023-04-28T02:11:06;101521.66;;;13.06;48.78
21109;BME280;10712;52.944;9.098;2023-04-28T02:13:32;101520.78;;;13.05;48.94
21109;BME280;10712;52.944;9.098;2023-04-28T02:16:01;101522.69;;;13.03;48.79
21109;BME280;10712;52.944;9.098;2023-04-28T02:18:27;101522.69;;;13.03;48.88
21109;BME280;10712;52.944;9.098;2023-04-28T02:20:53;101531.66;;;13.02;48.88
21109;BME280;10712;52.944;9.098;2023-04-28T02:23:18;101522.84;;;13.00;48.72
21109;BME280;10712;52.944;9.098;2023-04-28T02:25:44;101519.22;;;13.01;48.86
21109;BME280;10712;52.944;9.098;2023-04-28T02:28:12;101514.81;;;13.00;48.60
21109;BME280;10712;52.944;9.098;2023-04-28T02:30:38;101509.66;;;12.97;48.63
21109;BME280;10712;52.944;9.098;2023-04-28T02:33:03;101508.72;;;12.98;48.55
21109;BME280;10712;52.944;9.098;2023-04-28T02:35:30;101510.59;;;12.96;48.43
21109;BME280;10712;52.944;9.098;2023-04-28T02:37:56;101510.69;;;12.94;48.30
21109;BME280;10712;52.944;9.098;2023-04-28T02:40:22;101500.25;;;12.90;48.40
21109;BME280;10712;52.944;9.098;2023-04-28T02:42:48;101495.06;;;12.87;48.13
21109;BME280;10712;52.944;9.098;2023-04-28T02:45:14;101489.72;;;12.87;48.24
21109;BME280;10712;52.944;9.098;2023-04-28T02:47:40;101487.81;;;12.89;47.91
21109;BME280;10712;52.944;9.098;2023-04-28T02:50:07;101486.28;;;12.85;47.95
21109;BME280;10712;52.944;9.098;2023-04-28T02:52:33;101480.94;;;12.85;47.97
21109;BME280;10712;52.944;9.098;2023-04-28T02:54:58;101480.75;;;12.88;47.94
21109;BME280;10712;52.944;9.098;2023-04-28T02:57:24;101473.66;;;12.87;47.86
21109;BME280;10712;52.944;9.098;2023-04-28T02:59:50;101478.34;;;12.83;47.69
21109;BME280;10712;52.944;9.098;2023-04-28T03:02:16;101468.66;;;12.81;47.72
21109;BME280;10712;52.944;9.098;2023-04-28T03:04:42;101471.19;;;12.84;47.86
21109;BME280;10712;52.944;9.098;2023-04-28T03:07:08;101462.97;;;12.87;47.67
21109;BME280;10712;52.944;9.098;2023-04-28T03:09:35;101456.53;;;12.91;47.57
21109;BME280;10712;52.944;9.098;2023-04-28T03:12:01;101452.91;;;12.92;47.45
21109;BME280;10712;52.944;9.098;2023-04-28T03:14:29;101449.28;;;12.93;47.30
21109;BME280;10712;52.944;9.098;2023-04-28T03:16:55;101443.94;;;12.93;47.33
21109;BME280;10712;52.944;9.098;2023-04-28T03:19:22;101445.03;;;12.89;47.07
21109;BME280;10712;52.944;9.098;2023-04-28T03:21:48;101437.19;;;12.86;47.04
21109;BME280;10712;52.944;9.098;2023-04-28T03:24:14;101432.97;;;12.82;47.22
21109;BME280;10712;52.944;9.098;2023-04-28T03:26:39;101426.06;;;12.78;47.18
21109;BME280;10712;52.944;9.098;2023-04-28T03:29:05;101422.63;;;12.76;47.08
21109;BME280;10712;52.944;9.098;2023-04-28T03:31:31;101420.88;;;12.75;47.28
21109;BME280;10712;52.944;9.098;2023-04-28T03:33:57;101422.03;;;12.71;47.05
21109;BME280;10712;52.944;9.098;2023-04-28T03:36:24;101418.56;;;12.69;47.18
21109;BME280;10712;52.944;9.098;2023-04-28T03:38:53;101410.38;;;12.72;47.14
21109;BME280;10712;52.944;9.098;2023-04-28T03:41:19;101414.00;;;12.71;47.21
21109;BME280;10712;52.944;9.098;2023-04-28T03:44:10;101412.19;;;12.71;47.08
21109;BME280;10712;52.944;9.098;2023-04-28T03:46:44;101406.56;;;12.76;47.12
21109;BME280;10712;52.944;9.098;2023-04-28T03:49:11;101397.41;;;12.80;47.00
21109;BME280;10712;52.944;9.098;2023-04-28T03:51:37;101402.94;;;12.77;47.16
21109;BME280;10712;52.944;9.098;2023-04-28T03:54:03;101397.59;;;12.77;47.06
21109;BME280;10712;52.944;9.098;2023-04-28T03:56:30;101391.19;;;12.79;47.08
21109;BME280;10712;52.944;9.098;2023-04-28T03:58:57;101390.38;;;12.79;46.99
21109;BME280;10712;52.944;9.098;2023-04-28T04:01:22;101386.72;;;12.80;46.85
21109;BME280;10712;52.944;9.098;2023-04-28T04:03:49;101385.03;;;12.79;46.84
21109;BME280;10712;52.944;9.098;2023-04-28T04:06:17;101392.25;;;12.77;46.72
21109;BME280;10712;52.944;9.098;2023-04-28T04:08:43;101390.53;;;12.76;46.83
21109;BME280;10712;52.944;9.098;2023-04-28T04:11:08;101382.78;;;12.71;46.76
21109;BME280;10712;52.944;9.098;2023-04-28T04:13:34;101375.50;;;12.73;46.88
21109;BME280;10712;52.944;9.098;2023-04-28T04:16:04;101378.09;;;12.75;46.76
21109;BME280;10712;52.944;9.098;2023-04-28T04:18:31;101372.69;;;12.76;46.78
21109;BME280;10712;52.944;9.098;2023-04-28T04:21:13;101369.31;;;12.73;47.08
21109;BME280;10712;52.944;9.098;2023-04-28T04:23:39;101363.78;;;12.76;46.90
21109;BME280;10712;52.944;9.098;2023-04-28T04:26:05;101359.31;;;12.76;46.86
21109;BME280;10712;52.944;9.098;2023-04-28T04:28:31;101361.91;;;12.78;46.76
21109;BME280;10712;52.944;9.098;2023-04-28T04:30:56;101358.44;;;12.76;46.94
21109;BME280;10712;52.944;9.098;2023-04-28T04:33:22;101345.00;;;12.77;47.12
21109;BME280;10712;52.944;9.098;2023-04-28T04:35:49;101338.59;;;12.80;46.83
21109;BME280;10712;52.944;9.098;2023-04-28T04:38:15;101334.97;;;12.81;46.92
21109;BME280;10712;52.944;9.098;2023-04-28T04:40:41;101335.66;;;12.84;47.08
21109;BME280;10712;52.944;9.098;2023-04-28T04:43:08;101333.59;;;12.89;46.87
21109;BME280;10712;52.944;9.098;2023-04-28T04:45:42;101329.97;;;12.90;46.89
21109;BME280;10712;52.944;9.098;2023-04-28T04:48:08;101330.75;;;12.92;46.83
21109;BME280;10712;52.944;9.098;2023-04-28T04:50:34;101330.63;;;12.94;47.03
21109;BME280;10712;52.944;9.098;2023-04-28T04:53:00;101333.72;;;13.02;47.00
21109;BME280;10712;52.944;9.098;2023-04-28T04:55:26;101331.63;;;13.07;46.81
21109;BME280;10712;52.944;9.098;2023-04-28T04:57:52;101332.94;;;13.16;46.78
21109;BME280;10712;52.944;9.098;2023-04-28T05:00:36;101329.81;;;13.23;46.54
21109;BME280;10712;52.944;9.098;2023-04-28T05:03:04;101323.13;;;13.30;46.53
21109;BME280;10712;52.944;9.098;2023-04-28T05:05:31;101319.13;;;13.37;46.49
21109;BME280;10712;52.944;9.098;2023-04-28T05:08:28;101313.22;;;13.47;46.26
21109;BME280;10712;52.944;9.098;2023-04-28T05:10:56;101318.19;;;13.53;46.21
21109;BME280;10712;52.944;9.098;2023-04-28T05:13:24;101308.06;;;13.58;46.19
21109;BME280;10712;52.944;9.098;2023-04-28T05:15:56;101311.31;;;13.63;46.16
21109;BME280;10712;52.944;9.098;2023-04-28T05:18:39;101304.63;;;13.70;45.82
21109;BME280;10712;52.944;9.098;2023-04-28T05:21:05;101309.41;;;13.79;45.60
21109;BME280;10712;52.944;9.098;2023-04-28T05:23:32;101302.88;;;13.83;45.32
21109;BME280;10712;52.944;9.098;2023-04-28T05:25:58;101312.06;;;13.93;45.09
21109;BME280;10712;52.944;9.098;2023-04-28T05:28:24;101314.75;;;14.07;44.98
21109;BME280;10712;52.944;9.098;2023-04-28T05:30:53;101301.72;;;14.15;44.33
21109;BME280;10712;52.944;9.098;2023-04-28T05:33:19;101313.84;;;14.21;44.04
21109;BME280;10712;52.944;9.098;2023-04-28T05:35:46;101309.81;;;14.42;43.09
21109;BME280;10712;52.944;9.098;2023-04-28T05:38:13;101314.31;;;14.42;43.04
21109;BME280;10712;52.944;9.098;2023-04-28T05:40:41;101316.69;;;14.46;42.86
21109;BME280;10712;52.944;9.098;2023-04-28T05:43:07;101313.59;;;14.52;42.87
21109;BME280;10712;52.944;9.098;2023-04-28T05:45:33;101302.38;;;14.60;42.78
21109;BME280;10712;52.944;9.098;2023-04-28T05:47:59;101303.59;;;14.69;42.66
21109;BME280;10712;52.944;9.098;2023-04-28T05:50:26;101301.38;;;14.75;42.52
21109;BME280;10712;52.944;9.098;2023-04-28T05:52:52;101299.34;;;14.79;42.59
21109;BME280;10712;52.944;9.098;2023-04-28T05:55:18;101296.44;;;14.82;42.46
21109;BME280;10712;52.944;9.098;2023-04-28T05:57:44;101288.75;;;14.90;42.31
21109;BME280;10712;52.944;9.098;2023-04-28T06:00:11;101288.16;;;15.12;41.78
21109;BME280;10712;52.944;9.098;2023-04-28T06:02:39;101292.22;;;15.05;41.73
21109;BME280;10712;52.944;9.098;2023-04-28T06:05:08;101286.44;;;15.11;41.95
21109;BME280;10712;52.944;9.098;2023-04-28T06:07:34;101287.09;;;15.14;42.02
21109;BME280;10712;52.944;9.098;2023-04-28T06:10:00;101289.03;;;15.25;41.87
21109;BME280;10712;52.944;9.098;2023-04-28T06:12:26;101282.81;;;15.37;40.43
21109;BME280;10712;52.944;9.098;2023-04-28T06:14:51;101276.81;;;15.46;40.70
21109;BME280;10712;52.944;9.098;2023-04-28T06:17:20;101276.47;;;15.51;40.72
21109;BME280;10712;52.944;9.098;2023-04-28T06:19:46;101275.00;;;15.59;40.34
21109;BME280;10712;52.944;9.098;2023-04-28T06:22:11;101277.91;;;15.69;39.82
21109;BME280;10712;52.944;9.098;2023-04-28T06:24:37;101272.72;;;15.79;39.79
21109;BME280;10712;52.944;9.098;2023-04-28T06:27:07;101278.09;;;15.79;39.88
21109;BME280;10712;52.944;9.098;2023-04-28T06:29:33;101272.28;;;15.85;39.77
21109;BME280;10712;52.944;9.098;2023-04-28T06:31:59;101264.75;;;15.90;39.58
21109;BME280;10712;52.944;9.098;2023-04-28T06:34:25;101258.69;;;15.99;39.54
21109;BME280;10712;52.944;9.098;2023-04-28T06:36:54;101261.06;;;16.03;39.44
21109;BME280;10712;52.944;9.098;2023-04-28T06:39:21;101266.63;;;16.13;39.04
21109;BME280;10712;52.944;9.098;2023-04-28T06:41:47;101262.06;;;16.26;38.78
21109;BME280;10712;52.944;9.098;2023-04-28T06:44:13;101260.72;;;16.44;37.90
21109;BME280;10712;52.944;9.098;2023-04-28T06:46:39;101261.78;;;16.42;37.98
21109;BME280;10712;52.944;9.098;2023-04-28T06:49:05;101262.69;;;16.53;37.93
21109;BME280;10712;52.944;9.098;2023-04-28T06:51:31;101263.44;;;16.55;37.79
21109;BME280;10712;52.944;9.098;2023-04-28T06:54:00;101263.28;;;16.70;37.88
21109;BME280;10712;52.944;9.098;2023-04-28T06:56:26;101267.81;;;16.93;37.53
21109;BME280;10712;52.944;9.098;2023-04-28T06:58:55;101264.13;;;16.94;38.05
21109;BME280;10712;52.944;9.098;2023-04-28T07:01:24;101259.53;;;17.07;38.12
21109;BME280;10712;52.944;9.098;2023-04-28T07:03:50;101251.94;;;17.12;37.64
21109;BME280;10712;52.944;9.098;2023-04-28T07:06:16;101245.59;;;17.24;38.02
21109;BME280;10712;52.944;9.098;2023-04-28T07:08:42;101251.13;;;17.34;38.16
21109;BME280;10712;52.944;9.098;2023-04-28T07:11:08;101249.53;;;17.43;38.08
21109;BME280;10712;52.944;9.098;2023-04-28T07:13:34;101249.66;;;17.52;37.73
21109;BME280;10712;52.944;9.098;2023-04-28T07:16:00;101244.75;;;17.57;37.78
21109;BME280;10712;52.944;9.098;2023-04-28T07:18:26;101249.09;;;17.71;37.81
21109;BME280;10712;52.944;9.098;2023-04-28T07:20:52;101250.06;;;17.81;36.86
21109;BME280;10712;52.944;9.098;2023-04-28T07:23:18;101239.03;;;17.95;36.89
21109;BME280;10712;52.944;9.098;2023-04-28T07:25:44;101239.28;;;18.03;37.02
21109;BME280;10712;52.944;9.098;2023-04-28T07:28:09;101240.25;;;18.02;36.97
21109;BME280;10712;52.944;9.098;2023-04-28T07:30:35;101232.41;;;18.10;36.79
21109;BME280;10712;52.944;9.098;2023-04-28T07:33:01;101233.84;;;18.15;37.16
21109;BME280;10712;52.944;9.098;2023-04-28T07:35:28;101224.53;;;18.07;36.94
21109;BME280;10712;52.944;9.098;2023-04-28T07:37:54;101221.56;;;18.22;37.03
21109;BME280;10712;52.944;9.098;2023-04-28T07:40:20;101219.00;;;18.20;36.72
21109;BME280;10712;52.944;9.098;2023-04-28T07:42:46;101216.19;;;18.22;36.30
21109;BME280;10712;52.944;9.098;2023-04-28T07:45:13;101215.09;;;18.24;35.77
21109;BME280;10712;52.944;9.098;2023-04-28T07:47:40;101228.28;;;18.27;36.17
21109;BME280;10712;52.944;9.098;2023-04-28T07:50:07;101228.19;;;18.29;35.72
21109;BME280;10712;52.944;9.098;2023-04-28T07:52:34;101229.38;;;18.36;36.31
21109;BME280;10712;52.944;9.098;2023-04-28T07:55:00;101228.41;;;18.26;35.75
21109;BME280;10712;52.944;9.098;2023-04-28T07:57:27;101227.41;;;18.38;35.63
21109;BME280;10712;52.944;9.098;2023-04-28T07:59:54;101225.31;;;18.41;35.90
21109;BME280;10712;52.944;9.098;2023-04-28T08:02:19;101222.22;;;18.57;36.10
21109;BME280;10712;52.944;9.098;2023-04-28T08:04:46;101220.50;;;18.56;36.04
21109;BME280;10712;52.944;9.098;2023-04-28T08:07:12;101209.53;;;18.69;36.36
21109;BME280;10712;52.944;9.098;2023-04-28T08:09:38;101213.28;;;18.77;35.95
21109;BME280;10712;52.944;9.098;2023-04-28T08:12:07;101204.94;;;18.80;36.32
21109;BME280;10712;52.944;9.098;2023-04-28T08:14:33;101204.88;;;18.92;36.18
21109;BME280;10712;52.944;9.098;2023-04-28T08:16:58;101215.69;;;18.92;36.42
21109;BME280;10712;52.944;9.098;2023-04-28T08:19:24;101202.91;;;18.94;36.14
21109;BME280;10712;52.944;9.098;2023-04-28T08:21:50;101210.94;;;19.05;36.04
21109;BME280;10712;52.944;9.098;2023-04-28T08:24:16;101207.16;;;18.96;35.92
21109;BME280;10712;52.944;9.098;2023-04-28T08:26:42;101210.72;;;18.97;36.75
21109;BME280;10712;52.944;9.098;2023-04-28T08:29:08;101217.50;;;19.12;36.93
21109;BME280;10712;52.944;9.098;2023-04-28T08:31:34;101207.66;;;19.32;36.38
21109;BME280;10712;52.944;9.098;2023-04-28T08:34:00;101203.97;;;19.33;36.00
21109;BME280;10712;52.944;9.098;2023-04-28T08:36:26;101201.16;;;19.34;35.79
21109;BME280;10712;52.944;9.098;2023-04-28T08:38:56;101197.41;;;19.25;36.12
21109;BME280;10712;52.944;9.098;2023-04-28T08:41:24;101200.56;;;19.31;36.63
21109;BME280;10712;52.944;9.098;2023-04-28T08:43:54;101201.59;;;19.39;36.74
21109;BME280;10712;52.944;9.098;2023-04-28T08:46:21;101201.84;;;19.36;36.82
21109;BME280;10712;52.944;9.098;2023-04-28T08:48:49;101196.63;;;19.44;36.54
21109;BME280;10712;52.944;9.098;2023-04-28T08:51:25;101210.91;;;19.46;36.00
21109;BME280;10712;52.944;9.098;2023-04-28T08:53:54;101195.66;;;19.45;36.05
21109;BME280;10712;52.944;9.098;2023-04-28T08:56:23;101192.47;;;19.61;35.80
21109;BME280;10712;52.944;9.098;2023-04-28T08:58:53;101202.25;;;19.52;36.08
21109;BME280;10712;52.944;9.098;2023-04-28T09:01:19;101199.56;;;19.52;36.38
21109;BME280;10712;52.944;9.098;2023-04-28T09:03:45;101191.88;;;19.57;36.79
21109;BME280;10712;52.944;9.098;2023-04-28T09:06:12;101190.53;;;19.73;36.07
21109;BME280;10712;52.944;9.098;2023-04-28T09:08:38;101190.34;;;19.64;36.17
21109;BME280;10712;52.944;9.098;2023-04-28T09:11:08;101191.97;;;19.77;36.02
21109;BME280;10712;52.944;9.098;2023-04-28T09:13:35;101183.56;;;19.80;35.88
21109;BME280;10712;52.944;9.098;2023-04-28T09:16:02;101189.09;;;19.69;36.21
21109;BME280;10712;52.944;9.098;2023-04-28T09:18:29;101182.69;;;19.70;36.03
21109;BME280;10712;52.944;9.098;2023-04-28T09:21:08;101175.03;;;19.75;35.56
21109;BME280;10712;52.944;9.098;2023-04-28T09:23:48;101173.59;;;19.71;36.26
21109;BME280;10712;52.944;9.098;2023-04-28T09:26:15;101180.31;;;19.86;35.66
21109;BME280;10712;52.944;9.098;2023-04-28T09:28:41;101175.19;;;19.83;35.46
21109;BME280;10712;52.944;9.098;2023-04-28T09:31:25;101163.22;;;19.85;35.88
21109;BME280;10712;52.944;9.098;2023-04-28T09:33:57;101166.09;;;19.84;36.44
21109;BME280;10712;52.944;9.098;2023-04-28T09:36:30;101168.66;;;19.95;37.12
21109;BME280;10712;52.944;9.098;2023-04-28T09:38:58;101163.00;;;19.98;37.43
21109;BME280;10712;52.944;9.098;2023-04-28T09:41:36;101170.09;;;19.99;37.47
21109;BME280;10712;52.944;9.098;2023-04-28T09:44:18;101165.25;;;19.93;37.88
21109;BME280;10712;52.944;9.098;2023-04-28T09:46:46;101171.81;;;20.00;38.15
21109;BME280;10712;52.944;9.098;2023-04-28T09:49:13;101165.28;;;20.02;38.63
21109;BME280;10712;52.944;9.098;2023-04-28T09:51:39;101158.75;;;20.05;38.45
21109;BME280;10712;52.944;9.098;2023-04-28T09:54:05;101172.66;;;20.00;38.63
21109;BME280;10712;52.944;9.098;2023-04-28T09:56:34;101165.41;;;20.01;39.74
21109;BME280;10712;52.944;9.098;2023-04-28T09:59:03;101160.59;;;20.04;39.75
21109;BME280;10712;52.944;9.098;2023-04-28T10:01:39;101164.00;;;20.16;39.91
21109;BME280;10712;52.944;9.098;2023-04-28T10:04:06;101165.41;;;20.20;40.23
21109;BME280;10712;52.944;9.098;2023-04-28T10:06:35;101166.97;;;20.13;40.50
21109;BME280;10712;52.944;9.098;2023-04-28T10:09:02;101159.16;;;20.10;40.72
21109;BME280;10712;52.944;9.098;2023-04-28T10:11:28;101158.72;;;20.15;40.84
21109;BME280;10712;52.944;9.098;2023-04-28T10:13:55;101161.59;;;20.23;41.18
21109;BME280;10712;52.944;9.098;2023-04-28T10:16:21;101159.31;;;20.18;41.31
21109;BME280;10712;52.944;9.098;2023-04-28T10:18:49;101155.59;;;20.19;41.43
21109;BME280;10712;52.944;9.098;2023-04-28T10:21:18;101161.00;;;20.19;41.56
21109;BME280;10712;52.944;9.098;2023-04-28T10:23:59;101162.31;;;20.25;40.50
21109;BME280;10712;52.944;9.098;2023-04-28T10:27:01;101152.63;;;20.22;40.19
21109;BME280;10712;52.944;9.098;2023-04-28T10:29:30;101150.47;;;20.16;40.57
21109;BME280;10712;52.944;9.098;2023-04-28T10:32:23;101151.91;;;20.20;41.23
21109;BME280;10712;52.944;9.098;2023-04-28T10:34:51;101132.84;;;20.31;40.21
21109;BME280;10712;52.944;9.098;2023-04-28T10:37:18;101131.97;;;20.02;40.82
21109;BME280;10712;52.944;9.098;2023-04-28T10:42:56;101121.16;;;20.12;41.32
21109;BME280;10712;52.944;9.098;2023-04-28T10:48:50;101117.19;;;20.35;40.36
21109;BME280;10712;52.944;9.098;2023-04-28T10:56:18;101115.88;;;20.49;40.43
21109;BME280;10712;52.944;9.098;2023-04-28T10:58:48;101115.34;;;20.45;39.49
21109;BME280;10712;52.944;9.098;2023-04-28T11:06:30;101096.91;;;20.68;39.12
21109;BME280;10712;52.944;9.098;2023-04-28T11:16:59;101097.63;;;20.79;37.71
21109;BME280;10712;52.944;9.098;2023-04-28T11:19:36;101097.75;;;20.78;37.60
21109;BME280;10712;52.944;9.098;2023-04-28T11:22:19;101098.28;;;20.81;37.43
21109;BME280;10712;52.944;9.098;2023-04-28T11:24:59;101091.63;;;20.76;37.42
21109;BME280;10712;52.944;9.098;2023-04-28T11:27:29;101080.97;;;20.74;37.33
21109;BME280;10712;52.944;9.098;2023-04-28T11:29:55;101088.06;;;20.75;36.99
21109;BME280;10712;52.944;9.098;2023-04-28T11:32:32;101082.97;;;20.63;37.23
21109;BME280;10712;52.944;9.098;2023-04-28T11:34:59;101080.25;;;20.63;37.62
21109;BME280;10712;52.944;9.098;2023-04-28T11:37:26;101081.78;;;20.75;37.48
21109;BME280;10712;52.944;9.098;2023-04-28T11:39:52;101070.66;;;20.78;37.83
21109;BME280;10712;52.944;9.098;2023-04-28T11:42:18;101065.84;;;20.72;37.87
21109;BME280;10712;52.944;9.098;2023-04-28T11:44:51;101057.28;;;20.76;37.78
21109;BME280;10712;52.944;9.098;2023-04-28T11:47:29;101062.09;;;20.82;38.40
21109;BME280;10712;52.944;9.098;2023-04-28T11:49:55;101064.13;;;20.80;38.31
21109;BME280;10712;52.944;9.098;2023-04-28T11:52:22;101058.97;;;20.87;38.58
21109;BME280;10712;52.944;9.098;2023-04-28T11:54:56;101052.63;;;20.96;38.20
21109;BME280;10712;52.944;9.098;2023-04-28T11:57:24;101050.91;;;21.05;37.81
21109;BME280;10712;52.944;9.098;2023-04-28T11:59:51;101053.16;;;21.09;37.08
21109;BME280;10712;52.944;9.098;2023-04-28T12:02:27;101045.19;;;21.08;37.54
21109;BME280;10712;52.944;9.098;2023-04-28T12:05:04;101042.63;;;21.06;37.91
21109;BME280;10712;52.944;9.098;2023-04-28T12:07:42;101045.88;;;21.10;37.72
21109;BME280;10712;52.944;9.098;2023-04-28T12:10:13;101050.28;;;21.20;37.61
21109;BME280;10712;52.944;9.098;2023-04-28T12:12:43;101048.28;;;21.23;37.70
21109;BME280;10712;52.944;9.098;2023-04-28T12:15:10;101045.72;;;21.21;36.61
21109;BME280;10712;52.944;9.098;2023-04-28T12:17:38;101030.72;;;21.27;36.80
21109;BME280;10712;52.944;9.098;2023-04-28T12:20:10;101034.47;;;21.43;36.39
21109;BME280;10712;52.944;9.098;2023-04-28T12:22:48;101023.56;;;21.53;35.84
21109;BME280;10712;52.944;9.098;2023-04-28T12:25:17;101028.69;;;21.56;36.03
21109;BME280;10712;52.944;9.098;2023-04-28T12:28:06;101022.16;;;21.49;36.43
21109;BME280;10712;52.944;9.098;2023-04-28T12:30:36;101013.50;;;21.63;36.32
21109;BME280;10712;52.944;9.098;2023-04-28T12:33:03;101018.94;;;21.63;36.91
21109;BME280;10712;52.944;9.098;2023-04-28T12:35:29;101011.78;;;21.62;37.30
21109;BME280;10712;52.944;9.098;2023-04-28T12:37:56;101004.50;;;21.63;37.32
21109;BME280;10712;52.944;9.098;2023-04-28T12:40:23;100998.63;;;21.67;37.52
21109;BME280;10712;52.944;9.098;2023-04-28T12:42:49;100998.38;;;21.78;37.07
21109;BME280;10712;52.944;9.098;2023-04-28T12:45:15;100992.34;;;21.84;36.88
21109;BME280;10712;52.944;9.098;2023-04-28T12:47:42;101000.13;;;21.97;36.31
21109;BME280;10712;52.944;9.098;2023-04-28T12:50:08;101009.72;;;21.91;36.15
21109;BME280;10712;52.944;9.098;2023-04-28T12:52:34;101014.63;;;22.06;36.26
21109;BME280;10712;52.944;9.098;2023-04-28T12:55:03;101009.72;;;22.09;36.08
21109;BME280;10712;52.944;9.098;2023-04-28T12:57:28;101006.50;;;22.14;36.13
21109;BME280;10712;52.944;9.098;2023-04-28T12:59:54;101009.06;;;22.15;36.39
21109;BME280;10712;52.944;9.098;2023-04-28T13:02:22;101006.69;;;22.12;36.88
21109;BME280;10712;52.944;9.098;2023-04-28T13:04:48;101000.78;;;22.17;36.69
21109;BME280;10712;52.944;9.098;2023-04-28T13:07:14;100995.88;;;22.20;36.38
21109;BME280;10712;52.944;9.098;2023-04-28T13:09:41;100996.66;;;22.30;36.31
21109;BME280;10712;52.944;9.098;2023-04-28T13:12:10;100985.28;;;22.35;36.45
21109;BME280;10712;52.944;9.098;2023-04-28T13:14:39;100982.28;;;22.38;36.56
21109;BME280;10712;52.944;9.098;2023-04-28T13:17:05;100981.31;;;22.47;36.45
21109;BME280;10712;52.944;9.098;2023-04-28T13:19:30;100987.47;;;22.57;36.80